Cape Coral South, Florida
Current Conditions -  °F | °C
As of 10:53 PM on Monday 22 Dec 2014 (Local Time) from KFMY Reporting Station
Clear Clear  
Wind Chill: 69°   Ceiling: Unl
Heat Index: 69°   Visibility: 8mi
Dew Point: 68°   Wind: 3mph
Humidity: 96%   Direction: 140°SE
Pressure: 29.96"   Gusts: NA
Location:  26.5503°N, 82.0228°W
Report Text: KFMY 230353Z AUTO 14003KT 8SM CLR 21/20 A2996 RMK AO2 SLP146 T02060200
Loading
Personal Weather Stations






























Interactive Weather Map New forecast layout! Learn more

10-Day Weather Forecast

Advertisements
Track Severe Weather on mobile